createdAt,value
2019-05-10T00:00:10.331Z,99315.79
2019-05-10T00:02:56.976Z,99321.17
2019-05-10T00:05:43.247Z,99319.38
2019-05-10T00:08:29.834Z,99314.38
2019-05-10T00:11:06.521Z,99314.21
2019-05-10T00:13:43.744Z,99313.34
2019-05-10T00:16:12.662Z,99317.27
2019-05-10T00:18:41.090Z,99320.96
2019-05-10T00:21:09.520Z,99321.82
2019-05-10T00:23:37.966Z,99316.75
2019-05-10T00:26:06.530Z,99311.76
2019-05-10T00:28:34.954Z,99315.77
2019-05-10T00:31:03.474Z,99320.02
2019-05-10T00:33:31.896Z,99315.83
2019-05-10T00:36:00.329Z,99316.58
2019-05-10T00:38:28.859Z,99314.39
2019-05-10T00:40:57.357Z,99317.44
2019-05-10T00:43:25.784Z,99313.02
2019-05-10T00:45:54.306Z,99310.83
2019-05-10T00:48:22.732Z,99316.33
2019-05-10T00:50:51.154Z,99320.59
2019-05-10T00:53:19.695Z,99323.88
2019-05-10T00:55:48.193Z,99324.42
2019-05-10T00:58:16.624Z,99321.94
2019-05-10T01:00:45.292Z,99327.85
2019-05-10T01:03:13.816Z,99341.84
2019-05-10T01:05:42.249Z,99339.97
2019-05-10T01:08:10.708Z,99345.06
2019-05-10T01:10:39.132Z,99348.78
2019-05-10T01:13:07.560Z,99349.14
2019-05-10T01:15:36.012Z,99353.05
2019-05-10T01:18:04.472Z,99349.56
2019-05-10T01:20:32.895Z,99354.96
2019-05-10T01:23:01.359Z,99359.13
2019-05-10T01:25:35.318Z,99357.55
2019-05-10T01:27:59.934Z,99363.55
2019-05-10T01:30:28.449Z,99364.52
2019-05-10T01:32:57.043Z,99366.05
2019-05-10T01:35:25.540Z,99363.30
2019-05-10T01:37:54.063Z,99362.75
2019-05-10T01:40:22.487Z,99367.66
2019-05-10T01:42:50.901Z,99362.72
2019-05-10T01:45:19.694Z,99370.41
2019-05-10T01:47:48.115Z,99374.72
2019-05-10T01:50:16.686Z,99376.11
2019-05-10T01:52:45.205Z,99377.66
2019-05-10T01:55:14.069Z,99379.97
2019-05-10T01:57:42.496Z,99379.78
2019-05-10T02:00:11.586Z,99386.48
2019-05-10T02:02:40.109Z,99388.77
2019-05-10T02:05:08.929Z,99399.70
2019-05-10T02:07:37.608Z,99397.96
2019-05-10T02:10:07.184Z,99406.66
2019-05-10T02:12:35.661Z,99404.71
2019-05-10T02:15:05.849Z,99410.31
2019-05-10T02:17:34.342Z,99407.88
2019-05-10T02:20:03.032Z,99410.58
2019-05-10T02:22:31.495Z,99411.66
2019-05-10T02:24:59.968Z,99418.68
2019-05-10T02:27:28.464Z,99419.96
2019-05-10T02:29:56.973Z,99422.77
2019-05-10T02:32:25.398Z,99420.18
2019-05-10T02:34:53.828Z,99430.30
2019-05-10T02:37:22.279Z,99436.16
2019-05-10T02:39:50.703Z,99430.59
2019-05-10T02:42:19.132Z,99433.72
2019-05-10T02:44:47.753Z,99432.82
2019-05-10T02:47:16.176Z,99438.31
2019-05-10T02:49:44.645Z,99432.98
2019-05-10T02:52:13.082Z,99439.94
2019-05-10T02:54:41.566Z,99439.17
2019-05-10T02:57:12.762Z,99437.30
2019-05-10T02:59:43.577Z,99436.77
2019-05-10T03:02:13.324Z,99435.23
2019-05-10T03:04:43.345Z,99446.28
2019-05-10T03:07:12.178Z,99440.59
2019-05-10T03:09:40.610Z,99450.23
2019-05-10T03:12:25.150Z,99451.39
2019-05-10T03:14:58.135Z,99453.88
2019-05-10T03:17:27.678Z,99452.22
2019-05-10T03:19:56.357Z,99451.95
2019-05-10T03:22:25.925Z,99453.75
2019-05-10T03:24:54.667Z,99455.13
2019-05-10T03:27:23.326Z,99454.19
2019-05-10T03:29:52.188Z,99461.84
2019-05-10T03:32:20.795Z,99459.76
2019-05-10T03:34:49.301Z,99463.70
2019-05-10T03:37:17.968Z,99464.53
2019-05-10T03:39:46.460Z,99470.13
2019-05-10T03:42:15.028Z,99467.39
2019-05-10T03:44:43.413Z,99469.94
2019-05-10T03:47:11.836Z,99468.84
2019-05-10T03:49:40.351Z,99478.64
2019-05-10T03:52:08.772Z,99482.15
2019-05-10T03:54:37.269Z,99486.92
2019-05-10T03:57:14.601Z,99496.08
2019-05-10T03:59:35.930Z,99493.57
2019-05-10T04:02:04.366Z,99492.80
2019-05-10T04:04:32.886Z,99500.45
2019-05-10T04:07:01.309Z,99495.34
2019-05-10T04:09:29.722Z,99497.44
2019-05-10T04:11:58.174Z,99503.63
2019-05-10T04:14:26.596Z,99505.29
2019-05-10T04:16:55.036Z,99516.47
2019-05-10T04:19:23.472Z,99516.22
2019-05-10T04:21:51.898Z,99513.41
2019-05-10T04:24:20.507Z,99522.33
2019-05-10T04:26:49.057Z,99521.30
2019-05-10T04:29:17.552Z,99526.41
2019-05-10T04:31:46.113Z,99533.17
2019-05-10T04:34:14.814Z,99537.17
2019-05-10T04:36:43.313Z,99540.16
2019-05-10T04:39:11.732Z,99537.48
2019-05-10T04:41:40.381Z,99540.51
2019-05-10T04:44:08.835Z,99538.77
2019-05-10T04:46:37.272Z,99542.46
2019-05-10T04:49:05.988Z,99540.05
2019-05-10T04:51:34.470Z,99547.51
2019-05-10T04:54:02.900Z,99550.23
2019-05-10T04:56:31.342Z,99550.16
2019-05-10T04:58:59.826Z,99558.48
2019-05-10T05:01:28.252Z,99563.91
2019-05-10T05:03:56.905Z,99558.61
2019-05-10T05:06:25.335Z,99556.29
2019-05-10T05:08:53.771Z,99555.16
2019-05-10T05:11:22.369Z,99560.50
2019-05-10T05:13:50.785Z,99557.86
2019-05-10T05:16:19.278Z,99559.56
2019-05-10T05:18:47.731Z,99561.61
2019-05-10T05:21:16.156Z,99568.59
2019-05-10T05:23:44.688Z,99569.46
2019-05-10T05:26:13.089Z,99572.47
2019-05-10T05:28:41.511Z,99577.14
2019-05-10T05:31:09.998Z,99580.27
2019-05-10T05:33:38.572Z,99579.49
2019-05-10T05:36:07.034Z,99573.52
2019-05-10T05:38:40.500Z,99571.72
2019-05-10T05:41:05.639Z,99560.13
2019-05-10T05:43:34.064Z,99568.61
2019-05-10T05:46:02.515Z,99573.41
2019-05-10T05:48:40.139Z,99577.13
2019-05-10T05:51:01.239Z,99575.95
2019-05-10T05:53:29.725Z,99583.44
2019-05-10T05:56:03.686Z,99580.80
2019-05-10T05:58:28.348Z,99577.00
2019-05-10T06:00:56.762Z,99587.33
2019-05-10T06:03:29.715Z,99583.98
2019-05-10T06:05:55.370Z,99587.30
2019-05-10T06:08:25.077Z,99590.25
2019-05-10T06:10:57.778Z,99586.00
2019-05-10T06:13:30.516Z,99589.69
2019-05-10T06:15:54.098Z,99589.56
2019-05-10T06:18:22.551Z,99596.59
2019-05-10T06:20:50.999Z,99596.37
2019-05-10T06:23:19.418Z,99598.21
2019-05-10T06:25:47.884Z,99604.11
2019-05-10T06:28:26.272Z,99602.91
2019-05-10T06:30:46.548Z,99603.64
2019-05-10T06:33:15.063Z,99602.59
2019-05-10T06:35:43.485Z,99608.33
2019-05-10T06:38:11.903Z,99611.63
2019-05-10T06:40:46.788Z,99617.56
2019-05-10T06:43:13.288Z,99619.06
2019-05-10T06:45:40.883Z,99618.35
2019-05-10T06:48:09.500Z,99611.34
2019-05-10T06:50:37.938Z,99617.36
2019-05-10T06:53:10.756Z,99619.80
2019-05-10T06:55:36.698Z,99618.02
2019-05-10T06:58:05.120Z,99620.54
2019-05-10T07:00:38.237Z,99624.17
2019-05-10T07:03:03.974Z,99629.34
2019-05-10T07:05:32.401Z,99631.92
2019-05-10T07:08:13.842Z,99629.95
2019-05-10T07:10:33.699Z,99634.23
2019-05-10T07:13:03.451Z,99635.48
2019-05-10T07:15:35.658Z,99636.89
2019-05-10T07:18:02.801Z,99639.34
2019-05-10T07:20:31.224Z,99640.91
2019-05-10T07:23:05.369Z,99645.80
2019-05-10T07:25:29.889Z,99648.30
2019-05-10T07:27:58.330Z,99652.48
2019-05-10T07:30:35.695Z,99650.75
2019-05-10T07:33:04.557Z,99650.53
2019-05-10T07:35:36.821Z,99647.97
2019-05-10T07:38:03.474Z,99650.37
2019-05-10T07:40:31.914Z,99646.92
2019-05-10T07:43:00.411Z,99646.51
2019-05-10T07:45:28.943Z,99650.52
2019-05-10T07:47:57.440Z,99653.84
2019-05-10T07:50:25.938Z,99653.88
2019-05-10T07:52:54.487Z,99655.27
2019-05-10T07:55:28.072Z,99663.35
2019-05-10T07:57:53.094Z,99657.70
2019-05-10T08:00:25.315Z,99665.06
2019-05-10T08:03:02.333Z,99666.36
2019-05-10T08:05:23.443Z,99664.23
2019-05-10T08:07:51.894Z,99659.92
2019-05-10T08:10:21.555Z,99664.01
2019-05-10T08:12:50.153Z,99668.06
2019-05-10T08:15:19.591Z,99665.57
2019-05-10T08:17:48.721Z,99663.56
2019-05-10T08:20:33.198Z,99667.69
2019-05-10T08:22:48.536Z,99669.08
2019-05-10T08:25:16.984Z,99667.39
2019-05-10T08:27:50.513Z,99674.95
2019-05-10T08:30:42.559Z,99672.55
2019-05-10T08:33:09.781Z,99667.02
2019-05-10T08:35:38.905Z,99675.43
2019-05-10T08:38:08.541Z,99676.33
2019-05-10T08:40:38.124Z,99676.31
2019-05-10T08:43:09.737Z,99681.27
2019-05-10T08:45:38.933Z,99679.08
2019-05-10T08:48:07.362Z,99686.56
2019-05-10T08:50:49.651Z,99681.17
2019-05-10T08:53:10.692Z,99683.67
2019-05-10T08:55:36.176Z,99687.48
2019-05-10T08:58:04.729Z,99679.38
2019-05-10T09:00:45.610Z,99681.94
2019-05-10T09:03:09.522Z,99675.27
2019-05-10T09:05:34.670Z,99677.33
2019-05-10T09:08:05.837Z,99684.48
2019-05-10T09:10:34.121Z,99684.71
2019-05-10T09:13:03.440Z,99690.58
2019-05-10T09:15:33.099Z,99684.59
2019-05-10T09:18:04.418Z,99687.55
2019-05-10T09:20:32.070Z,99693.04
2019-05-10T09:23:02.407Z,99700.19
2019-05-10T09:25:31.597Z,99697.17
2019-05-10T09:28:02.373Z,99697.02
2019-05-10T09:30:35.641Z,99697.38
2019-05-10T09:33:08.619Z,99707.02
2019-05-10T09:35:38.998Z,99698.75
2019-05-10T09:38:04.827Z,99695.87
2019-05-10T09:40:33.326Z,99705.12
2019-05-10T09:43:07.712Z,99718.91
2019-05-10T09:45:32.563Z,99711.19
2019-05-10T09:48:02.510Z,99705.12
2019-05-10T09:50:41.430Z,99702.04
2019-05-10T09:53:01.773Z,99703.19
2019-05-10T09:55:30.251Z,99702.41
2019-05-10T09:57:58.682Z,99716.95
2019-05-10T10:00:37.947Z,99712.03
2019-05-10T10:03:08.284Z,99713.88
2019-05-10T10:05:39.761Z,99710.69
2019-05-10T10:08:09.080Z,99714.22
2019-05-10T10:10:37.286Z,99716.38
2019-05-10T10:13:13.546Z,99713.80
2019-05-10T10:15:37.261Z,99709.55
2019-05-10T10:18:06.161Z,99710.97
2019-05-10T10:20:40.661Z,99702.41
2019-05-10T10:23:07.260Z,99712.97
2019-05-10T10:25:40.691Z,99701.78
2019-05-10T10:28:10.304Z,99709.25
2019-05-10T10:30:37.312Z,99706.52
2019-05-10T10:33:11.709Z,99709.55
2019-05-10T10:35:37.763Z,99709.00
2019-05-10T10:38:08.085Z,99706.16
2019-05-10T10:40:44.096Z,99703.41
2019-05-10T10:43:07.702Z,99709.14
2019-05-10T10:45:37.622Z,99710.60
2019-05-10T10:48:10.716Z,99711.27
2019-05-10T10:50:36.589Z,99702.98
2019-05-10T10:53:07.751Z,99707.91
2019-05-10T10:55:39.436Z,99702.27
2019-05-10T10:58:07.341Z,99701.14
2019-05-10T11:00:38.963Z,99689.63
2019-05-10T11:03:07.035Z,99693.56
2019-05-10T11:05:35.465Z,99687.36
2019-05-10T11:08:04.925Z,99679.86
2019-05-10T11:10:33.811Z,99682.88
2019-05-10T11:13:10.652Z,99683.66
2019-05-10T11:15:36.025Z,99677.97
2019-05-10T11:18:03.004Z,99679.81
2019-05-10T11:20:31.952Z,99677.84
2019-05-10T11:23:00.454Z,99682.53
2019-05-10T11:25:29.025Z,99677.48
2019-05-10T11:28:00.938Z,99674.17
2019-05-10T11:30:27.756Z,99671.55
2019-05-10T11:32:56.326Z,99673.23
2019-05-10T11:35:30.552Z,99664.84
2019-05-10T11:37:55.048Z,99676.45
2019-05-10T11:40:30.513Z,99669.67
2019-05-10T11:42:53.672Z,99677.56
2019-05-10T11:45:26.006Z,99680.51
2019-05-10T11:47:56.770Z,99671.55
2019-05-10T11:50:31.351Z,99667.34
2019-05-10T11:52:53.312Z,99665.39
2019-05-10T11:55:21.956Z,99674.74
2019-05-10T12:00:28.545Z,99668.39
2019-05-10T12:03:12.612Z,99676.30
2019-05-10T12:05:26.434Z,99669.14
2019-05-10T12:07:54.838Z,99668.91
2019-05-10T12:10:25.760Z,99670.12
2019-05-10T12:13:08.250Z,99674.30
2019-05-10T12:15:25.280Z,99668.81
2019-05-10T12:17:58.955Z,99671.64
2019-05-10T12:20:39.533Z,99674.30
2019-05-10T12:22:53.238Z,99675.09
2019-05-10T12:25:37.573Z,99678.58
2019-05-10T12:26:04.744Z,99680.53
2019-05-10T12:27:52.494Z,99664.09
2019-05-10T12:30:21.846Z,99669.62
2019-05-10T12:33:05.848Z,99669.17
2019-05-10T12:35:21.495Z,99665.84
2019-05-10T12:37:54.035Z,99669.06
2019-05-10T12:40:23.885Z,99673.29
2019-05-10T12:42:50.725Z,99671.15
2019-05-10T12:45:23.001Z,99675.50
2019-05-10T12:47:51.711Z,99680.63
2019-05-10T12:50:20.878Z,99680.72
2019-05-10T12:53:02.608Z,99682.08
2019-05-10T12:55:19.583Z,99670.29
2019-05-10T12:57:48.004Z,99678.00
2019-05-10T13:00:17.082Z,99676.58
2019-05-10T13:02:51.282Z,99676.08
2019-05-10T13:05:16.262Z,99672.66
2019-05-10T13:07:45.019Z,99676.63
2019-05-10T13:10:13.941Z,99680.81
2019-05-10T13:12:46.825Z,99678.63
2019-05-10T13:15:13.594Z,99681.43
2019-05-10T13:17:50.497Z,99677.31
2019-05-10T13:20:12.802Z,99685.41
2019-05-10T13:22:41.273Z,99682.72
2019-05-10T13:25:10.312Z,99679.25
2019-05-10T13:27:39.079Z,99676.58
2019-05-10T13:30:08.678Z,99678.91
2019-05-10T13:32:37.260Z,99679.52
2019-05-10T13:35:06.827Z,99670.91
2019-05-10T13:37:35.410Z,99668.45
2019-05-10T13:40:07.708Z,99676.83
2019-05-10T13:42:40.764Z,99673.69
2019-05-10T13:45:09.235Z,99669.88
2019-05-10T13:47:37.642Z,99675.38
2019-05-10T13:50:07.672Z,99672.55
2019-05-10T13:52:38.809Z,99677.31
2019-05-10T13:55:07.354Z,99682.87
2019-05-10T13:57:35.778Z,99683.72
2019-05-10T14:00:07.045Z,99673.44
2019-05-10T14:02:35.544Z,99675.28
2019-05-10T14:05:05.115Z,99671.77
2019-05-10T14:07:33.738Z,99676.08
2019-05-10T14:10:02.199Z,99670.36
2019-05-10T14:12:30.612Z,99667.41
2019-05-10T14:15:02.397Z,99668.09
2019-05-10T14:17:29.382Z,99667.48
2019-05-10T14:19:57.811Z,99673.44
2019-05-10T14:22:26.337Z,99668.05
2019-05-10T14:24:58.927Z,99661.71
2019-05-10T14:27:29.776Z,99673.14
2019-05-10T14:29:55.124Z,99671.97
2019-05-10T14:32:23.547Z,99678.24
2019-05-10T14:34:52.041Z,99668.37
2019-05-10T14:37:21.673Z,99672.36
2019-05-10T14:39:50.315Z,99670.78
2019-05-10T14:42:23.926Z,99673.17
2019-05-10T14:44:49.007Z,99670.53
2019-05-10T14:47:17.493Z,99666.39
2019-05-10T14:49:46.809Z,99676.05
2019-05-10T14:52:16.191Z,99675.55
2019-05-10T14:54:49.824Z,99672.52
2019-05-10T14:57:14.850Z,99672.98
2019-05-10T14:59:43.415Z,99674.56
2019-05-10T15:02:17.107Z,99675.87
2019-05-10T15:04:45.309Z,99678.75
2019-05-10T15:07:14.447Z,99678.19
2019-05-10T15:09:42.500Z,99680.27
2019-05-10T15:12:16.385Z,99682.77
2019-05-10T15:14:41.125Z,99682.66
2019-05-10T15:17:09.652Z,99684.92
2019-05-10T15:19:38.083Z,99679.05
2019-05-10T15:22:06.706Z,99687.20
2019-05-10T15:24:35.134Z,99684.69
2019-05-10T15:27:03.643Z,99682.53
2019-05-10T15:29:32.154Z,99683.47
2019-05-10T15:32:00.647Z,99687.55
2019-05-10T15:34:29.172Z,99691.84
2019-05-10T15:37:02.774Z,99688.11
2019-05-10T15:39:28.695Z,99687.38
2019-05-10T15:41:59.093Z,99686.59
2019-05-10T15:44:33.207Z,99682.48
2019-05-10T15:47:00.057Z,99680.13
2019-05-10T15:49:28.491Z,99683.84
2019-05-10T15:52:16.145Z,99682.72
2019-05-10T15:54:27.114Z,99684.84
2019-05-10T15:56:56.057Z,99689.86
2019-05-10T15:59:24.655Z,99685.84
2019-05-10T16:01:53.126Z,99694.00
2019-05-10T16:04:21.550Z,99697.87
2019-05-10T16:06:50.004Z,99701.49
2019-05-10T16:09:19.326Z,99704.70
2019-05-10T16:11:48.035Z,99702.44
2019-05-10T16:14:16.489Z,99704.80
2019-05-10T16:16:44.987Z,99704.81
2019-05-10T16:19:18.751Z,99699.64
2019-05-10T16:21:46.724Z,99697.55
2019-05-10T16:24:13.836Z,99697.19
2019-05-10T16:26:42.236Z,99698.23
2019-05-10T16:29:10.698Z,99691.06
2019-05-10T16:31:39.124Z,99700.85
2019-05-10T16:34:07.686Z,99702.67
2019-05-10T16:36:36.206Z,99689.58
2019-05-10T16:39:06.833Z,99697.63
2019-05-10T16:41:35.284Z,99704.84
2019-05-10T16:44:03.923Z,99707.88
2019-05-10T16:46:32.347Z,99702.17
2019-05-10T16:49:00.775Z,99703.13
2019-05-10T16:51:29.360Z,99698.20
2019-05-10T16:53:57.857Z,99694.55
2019-05-10T16:56:26.461Z,99687.59
2019-05-10T16:58:55.198Z,99687.08
2019-05-10T17:01:25.974Z,99685.99
2019-05-10T17:04:00.125Z,99689.73
2019-05-10T17:06:24.015Z,99687.87
2019-05-10T17:08:52.444Z,99682.09
2019-05-10T17:11:20.945Z,99691.98
2019-05-10T17:13:49.389Z,99688.66
2019-05-10T17:16:18.889Z,99682.08
2019-05-10T17:18:49.646Z,99678.67
2019-05-10T17:21:17.888Z,99672.25
2019-05-10T17:23:48.444Z,99668.42
2019-05-10T17:26:16.457Z,99673.30
2019-05-10T17:28:44.907Z,99670.77
2019-05-10T17:31:13.399Z,99660.72
2019-05-10T17:33:44.302Z,99654.95
2019-05-10T17:36:14.647Z,99665.59
2019-05-10T17:38:47.494Z,99665.46
2019-05-10T17:41:12.560Z,99669.97
2019-05-10T17:43:41.155Z,99671.86
2019-05-10T17:46:12.771Z,99664.66
2019-05-10T17:48:40.725Z,99664.83
2019-05-10T17:51:10.346Z,99657.91
2019-05-10T17:53:38.768Z,99658.76
2019-05-10T17:56:07.195Z,99660.47
2019-05-10T17:58:35.700Z,99661.23
2019-05-10T18:01:04.261Z,99669.77
2019-05-10T18:03:32.704Z,99658.97
2019-05-10T18:06:01.409Z,99650.92
2019-05-10T18:08:29.823Z,99661.08
2019-05-10T18:11:03.978Z,99661.38
2019-05-10T18:13:28.438Z,99669.48
2019-05-10T18:15:56.900Z,99669.30
2019-05-10T18:18:25.368Z,99677.53
2019-05-10T18:20:53.929Z,99679.79
2019-05-10T18:23:22.974Z,99684.74
2019-05-10T18:25:52.566Z,99688.96
2019-05-10T18:28:21.992Z,99694.61
2019-05-10T18:30:50.449Z,99699.22
2019-05-10T18:33:18.966Z,99691.34
2019-05-10T18:35:52.638Z,99694.20
2019-05-10T18:38:17.630Z,99707.67
2019-05-10T18:40:46.125Z,99717.34
2019-05-10T18:43:14.582Z,99716.48
2019-05-10T18:45:43.072Z,99708.31
2019-05-10T18:48:11.498Z,99718.97
2019-05-10T18:50:45.129Z,99716.65
2019-05-10T18:53:10.312Z,99713.59
2019-05-10T18:55:38.749Z,99713.52
2019-05-10T18:58:07.267Z,99709.91
2019-05-10T19:00:35.759Z,99715.31
2019-05-10T19:03:04.424Z,99723.05
2019-05-10T19:05:33.272Z,99720.76
2019-05-10T19:08:05.405Z,99723.62
2019-05-10T19:10:31.957Z,99716.66
2019-05-10T19:13:03.770Z,99719.81
2019-05-10T19:15:30.559Z,99717.25
2019-05-10T19:17:58.973Z,99726.53
2019-05-10T19:20:27.462Z,99721.80
2019-05-10T19:22:55.890Z,99722.31
2019-05-10T19:25:24.375Z,99719.58
2019-05-10T19:27:52.901Z,99716.90
2019-05-10T19:30:22.546Z,99728.32
2019-05-10T19:32:55.867Z,99723.38
2019-05-10T19:35:21.361Z,99733.99
2019-05-10T19:37:49.788Z,99737.52
2019-05-10T19:40:18.723Z,99744.70
2019-05-10T19:42:49.455Z,99749.20
2019-05-10T19:45:19.717Z,99759.58
2019-05-10T19:47:49.990Z,99753.27
2019-05-10T19:50:18.176Z,99755.42
2019-05-10T19:52:46.640Z,99757.52
2019-05-10T19:55:19.565Z,99757.13
2019-05-10T19:57:49.452Z,99748.60
2019-05-10T20:00:15.859Z,99754.25
2019-05-10T20:02:44.389Z,99753.39
2019-05-10T20:05:13.180Z,99755.88
2019-05-10T20:07:46.113Z,99754.23
2019-05-10T20:10:12.291Z,99752.73
2019-05-10T20:12:40.788Z,99748.05
2019-05-10T20:15:09.953Z,99753.31
2019-05-10T20:17:38.950Z,99749.16
2019-05-10T20:20:08.033Z,99756.11
2019-05-10T20:22:36.724Z,99754.39
2019-05-10T20:25:06.799Z,99751.52
2019-05-10T20:27:35.273Z,99741.50
2019-05-10T20:30:04.434Z,99745.16
2019-05-10T20:32:32.868Z,99749.37
2019-05-10T20:35:01.346Z,99747.28
2019-05-10T20:37:29.767Z,99748.28
2019-05-10T20:39:58.186Z,99751.42
2019-05-10T20:42:26.912Z,99763.23
2019-05-10T20:45:06.878Z,99762.67
2019-05-10T20:47:25.490Z,99761.70
2019-05-10T20:49:54.045Z,99764.09
2019-05-10T20:52:22.476Z,99760.55
2019-05-10T20:54:50.959Z,99763.45
2019-05-10T20:57:19.448Z,99756.86
2019-05-10T20:59:47.866Z,99761.05
2019-05-10T21:02:16.291Z,99759.14
2019-05-10T21:04:44.745Z,99756.06
2019-05-10T21:07:13.352Z,99759.75
2019-05-10T21:09:41.770Z,99753.62
2019-05-10T21:12:10.227Z,99756.38
2019-05-10T21:14:38.672Z,99750.17
2019-05-10T21:17:07.099Z,99756.39
2019-05-10T21:19:35.558Z,99754.88
2019-05-10T21:22:03.979Z,99757.81
2019-05-10T21:24:32.401Z,99748.22
2019-05-10T21:27:00.970Z,99737.22
2019-05-10T21:29:29.416Z,99733.98
2019-05-10T21:31:57.902Z,99737.22
2019-05-10T21:34:26.506Z,99738.70
2019-05-10T21:36:54.911Z,99723.05
2019-05-10T21:39:23.340Z,99720.88
2019-05-10T21:41:51.859Z,99720.17
2019-05-10T21:44:20.360Z,99710.98
2019-05-10T21:46:48.787Z,99714.13
2019-05-10T21:49:17.324Z,99711.75
2019-05-10T21:51:45.738Z,99716.55
2019-05-10T21:54:14.226Z,99717.81
2019-05-10T21:56:42.825Z,99712.67
2019-05-10T21:59:11.271Z,99703.90
2019-05-10T22:01:39.903Z,99690.22
2019-05-10T22:04:08.366Z,99695.16
2019-05-10T22:06:38.499Z,99669.95
2019-05-10T22:09:08.441Z,99671.17
2019-05-10T22:11:36.857Z,99668.84
2019-05-10T22:14:05.363Z,99668.61
2019-05-10T22:16:33.867Z,99661.23
2019-05-10T22:19:02.819Z,99650.16
2019-05-10T22:21:31.408Z,99644.80
2019-05-10T22:23:59.856Z,99640.27
2019-05-10T22:26:28.455Z,99634.30
2019-05-10T22:28:56.875Z,99628.08
2019-05-10T22:31:25.305Z,99626.90
2019-05-10T22:33:53.754Z,99628.70
2019-05-10T22:36:22.186Z,99630.14
2019-05-10T22:39:05.964Z,99628.17
2019-05-10T22:41:20.842Z,99630.28
2019-05-10T22:43:49.297Z,99642.23
2019-05-10T22:46:17.736Z,99642.86
2019-05-10T22:48:46.355Z,99639.07
2019-05-10T22:51:14.787Z,99636.16
2019-05-10T22:53:43.282Z,99636.55
2019-05-10T22:56:11.753Z,99627.53
2019-05-10T22:58:40.185Z,99620.72
2019-05-10T23:01:08.682Z,99615.65
2019-05-10T23:03:37.229Z,99613.96
2019-05-10T23:06:05.651Z,99606.50
2019-05-10T23:08:34.161Z,99611.37
2019-05-10T23:11:02.765Z,99615.77
2019-05-10T23:13:31.177Z,99633.66
2019-05-10T23:15:59.631Z,99639.28
2019-05-10T23:18:28.095Z,99622.61
2019-05-10T23:20:56.888Z,99625.83
2019-05-10T23:23:25.326Z,99629.75
2019-05-10T23:25:53.857Z,99625.59
2019-05-10T23:28:22.278Z,99623.62
2019-05-10T23:30:50.743Z,99625.41
2019-05-10T23:33:19.217Z,99635.93
2019-05-10T23:35:47.639Z,99637.10
2019-05-10T23:38:16.136Z,99632.70
2019-05-10T23:40:44.598Z,99631.19
2019-05-10T23:43:13.157Z,99639.15
2019-05-10T23:45:41.582Z,99631.92
2019-05-10T23:48:10.111Z,99627.61
2019-05-10T23:50:38.531Z,99620.94
2019-05-10T23:53:06.959Z,99612.08
2019-05-10T23:55:35.406Z,99606.04
2019-05-10T23:58:03.917Z,99606.38
